Time;durP1;ratioP1;P1;durP2;ratioP2;P2;SDS_P1;SDS_P2;PMS_P1;PMS_P2;Temp;Humidity;BMP_temperature;BMP_pressure;BME280_temperature;BME280_humidity;BME280_pressure;Samples;Min_cycle;Max_cycle;Signal;HPM_P1;HPM_P2
2022/08/12 00:43:39;;;;;;;5.72;4.45;;;;;;;;;;4989443;28;20367;-66
2022/08/12 00:48:50;;;;;;;5.05;4.65;;;;;;;;;;4988373;28;20234;-66
2022/08/12 00:51:18;;;;;;;8.23;3.70;;;;;;;;;;4986822;28;20673;-67
2022/08/12 00:53:44;;;;;;;4.47;4.07;;;;;;;;;;4989435;28;20382;-66
2022/08/12 00:56:11;;;;;;;3.80;3.53;;;;;;;;;;4988607;28;20617;-66
2022/08/12 00:58:39;;;;;;;3.72;3.53;;;;;;;;;;4991303;28;20212;-67
2022/08/12 01:01:07;;;;;;;4.22;4.03;;;;;;;;;;4993261;28;20310;-66
2022/08/12 01:11:49;;;;;;;5.55;5.15;;;;;;;;;;4990296;28;20285;-68
2022/08/12 01:14:17;;;;;;;5.82;5.43;;;;;;;;;;4990412;28;20204;-66
2022/08/12 01:16:44;;;;;;;5.15;4.80;;;;;;;;;;4992816;28;20202;-67
2022/08/12 01:19:11;;;;;;;5.40;5.10;;;;;;;;;;4990060;28;21846;-67
2022/08/12 01:21:55;;;;;;;5.93;5.43;;;;;;;;;;4989048;28;20700;-64
2022/08/12 01:24:47;;;;;;;5.88;5.00;;;;;;;;;;4992521;28;20677;-65
2022/08/12 01:27:14;;;;;;;5.80;5.30;;;;;;;;;;4991006;28;20322;-64
2022/08/12 01:29:42;;;;;;;6.05;5.55;;;;;;;;;;4992124;28;20231;-66
2022/08/12 01:32:10;;;;;;;10.25;9.40;;;;;;;;;;4991248;28;20211;-65
2022/08/12 01:34:38;;;;;;;6.70;6.15;;;;;;;;;;4992987;28;20253;-66
2022/08/12 01:37:06;;;;;;;14.07;11.20;;;;;;;;;;4991994;28;21010;-67
2022/08/12 01:39:33;;;;;;;8.98;8.18;;;;;;;;;;4991449;28;20708;-66
2022/08/12 01:42:07;;;;;;;5.65;5.35;;;;;;;23.23;nan;95200.59;4992689;28;20210;-65
2022/08/12 01:44:34;;;;;;;5.93;5.47;;;;;;;;;;4989827;28;20289;-67
2022/08/12 01:47:05;;;;;;;9.13;6.72;;;;;;;;;;4990115;28;20306;-67
2022/08/12 01:49:43;;;;;;;7.93;5.72;;;;;;;;;;4991146;28;20215;-67
2022/08/12 01:52:11;;;;;;;8.70;7.63;;;;;;;;;;4991199;28;20239;-66
2022/08/12 01:54:39;;;;;;;4.70;4.40;;;;;;;;;;4991213;28;20681;-66
2022/08/12 01:57:10;;;;;;;5.22;4.93;;;;;;;;;;4989356;28;20305;-67
2022/08/12 01:59:48;;;;;;;4.85;4.55;;;;;;;23.45;nan;95173.72;4988326;28;20286;-65
2022/08/12 02:02:17;;;;;;;5.43;4.93;;;;;;;;;;4990251;28;20204;-67
2022/08/12 02:13:34;;;;;;;5.43;4.95;;;;;;;;;;4986947;28;20215;-67
2022/08/12 02:16:06;;;;;;;5.93;5.47;;;;;;;;;;4989537;28;20598;-66
2022/08/12 02:18:38;;;;;;;5.18;4.68;;;;;;;;;;4989019;28;20204;-66
2022/08/12 02:21:05;;;;;;;5.75;5.07;;;;;;;;;;4990526;28;20705;-66
2022/08/12 02:23:33;;;;;;;5.63;5.22;;;;;;;;;;4986546;28;20274;-66
2022/08/12 02:26:03;;;;;;;7.47;5.63;;;;;;;;;;4989288;28;20348;-68
2022/08/12 02:28:31;;;;;;;5.25;4.95;;;;;;;;;;4988387;28;20262;-67
2022/08/12 02:31:02;;;;;;;5.03;4.68;;;;;;;;;;4992241;28;20261;-67
2022/08/12 02:33:28;;;;;;;4.97;4.50;;;;;;;;;;4992267;28;20207;-67
2022/08/12 02:35:55;;;;;;;5.03;4.72;;;;;;;;;;4991364;28;20279;-67
2022/08/12 02:38:23;;;;;;;5.78;5.22;;;;;;;;;;4991184;28;20273;-67
2022/08/12 02:40:53;;;;;;;5.38;4.82;;;;;;;;;;4992207;28;21997;-67
2022/08/12 02:43:25;;;;;;;4.65;4.35;;;;;;;;;;4993545;28;20322;-68
2022/08/12 02:45:56;;;;;;;4.78;4.47;;;;;;;;;;4990575;28;20224;-66
2022/08/12 02:48:26;;;;;;;5.38;4.85;;;;;;;;;;4992164;28;20277;-68
2022/08/12 02:50:56;;;;;;;4.93;4.50;;;;;;;;;;4991692;28;20207;-68
2022/08/12 02:53:23;;;;;;;5.00;4.50;;;;;;;;;;4990432;28;20208;-69
2022/08/12 02:55:49;;;;;;;4.60;4.32;;;;;;;;;;4990426;28;20651;-66
2022/08/12 02:58:16;;;;;;;5.65;5.30;;;;;;;;;;4991756;28;20231;-66
2022/08/12 03:00:43;;;;;;;5.53;5.07;;;;;;;;;;4990151;28;20211;-67
2022/08/12 03:03:11;;;;;;;6.50;4.75;;;;;;;;;;4992628;28;20649;-67
2022/08/12 03:05:42;;;;;;;5.90;5.40;;;;;;;;;;4990980;28;20235;-67
2022/08/12 03:08:09;;;;;;;9.73;5.30;;;;;;;;;;4991496;28;21694;-67
2022/08/12 03:10:38;;;;;;;4.72;4.40;;;;;;;;;;4992894;28;20243;-68
2022/08/12 03:13:05;;;;;;;5.55;5.05;;;;;;;;;;4990493;28;20204;-67
2022/08/12 03:15:32;;;;;;;5.28;4.88;;;;;;;;;;4989295;28;20207;-67
2022/08/12 03:18:02;;;;;;;5.88;5.40;;;;;;;;;;4992193;28;20593;-68
2022/08/12 03:20:30;;;;;;;5.75;5.22;;;;;;;;;;4989958;28;20242;-66
2022/08/12 03:22:59;;;;;;;5.40;5.10;;;;;;;;;;4990191;28;20211;-67
2022/08/12 03:25:26;;;;;;;7.65;5.40;;;;;;;;;;4993113;28;20277;-67
2022/08/12 03:27:55;;;;;;;6.75;6.15;;;;;;;;;;4991800;28;20211;-68
2022/08/12 03:30:22;;;;;;;6.13;5.60;;;;;;;;;;4992828;28;20270;-68
2022/08/12 03:32:50;;;;;;;6.47;6.05;;;;;;;;;;4990278;28;20771;-67
2022/08/12 03:35:18;;;;;;;13.85;10.25;;;;;;;;;;4990937;28;20560;-66
2022/08/12 03:37:47;;;;;;;10.73;8.35;;;;;;;;;;4992263;28;20203;-66
2022/08/12 03:41:33;;;;;;;8.00;7.40;;;;;;;;;;4992386;28;20285;-66
2022/08/12 04:02:14;;;;;;;7.40;6.70;;;;;;;;;;4990259;28;20206;-67
2022/08/12 04:04:44;;;;;;;7.90;7.13;;;;;;;;;;4989001;28;20213;-67
2022/08/12 04:07:11;;;;;;;8.07;6.72;;;;;;;;;;4989152;28;21887;-65
2022/08/12 04:09:40;;;;;;;6.95;6.40;;;;;;;;;;4989691;28;20200;-66
2022/08/12 04:15:03;;;;;;;6.85;6.35;;;;;;;;;;4928548;28;20232;-67
2022/08/12 04:17:30;;;;;;;7.47;6.78;;;;;;;;;;4974460;28;20203;-67
2022/08/12 04:19:57;;;;;;;7.88;6.60;;;;;;;21.81;nan;95187.56;4991523;28;20192;-67
2022/08/12 04:22:25;;;;;;;7.40;7.00;;;;;;;;;;4990332;28;21281;-66
2022/08/12 04:24:53;;;;;;;6.72;6.15;;;;;;;;;;4990032;28;20204;-66
2022/08/12 04:27:20;;;;;;;7.78;7.07;;;;;;;;;;4990143;28;20322;-66
2022/08/12 04:29:46;;;;;;;8.52;7.38;;;;;;;;;;4991756;28;20701;-65
2022/08/12 04:32:14;;;;;;;8.45;7.13;;;;;;;;;;4989635;28;20199;-67
2022/08/12 04:34:43;;;;;;;7.05;6.38;;;;;;;;;;4990033;28;20207;-66
2022/08/12 04:37:10;;;;;;;6.97;6.47;;;;;;;;;;4990506;28;21866;-67
2022/08/12 04:39:38;;;;;;;7.32;6.85;;;;;;;;;;4990079;28;20209;-66
2022/08/12 04:42:06;;;;;;;10.05;8.95;;;;;;;21.67;nan;95212.72;4990427;28;20235;-67
2022/08/12 04:44:34;;;;;;;8.75;8.02;;;;;;;;;;4989538;28;20211;-67
2022/08/12 04:47:00;;;;;;;9.20;7.60;;;;;;;;;;4988150;28;20313;-66
2022/08/12 04:49:29;;;;;;;8.57;7.85;;;;;;;21.86;nan;95170.78;4988237;28;20208;-67
2022/08/12 04:51:58;;;;;;;8.10;7.32;;;;;;;;;;4989462;28;20191;-68
2022/08/12 04:54:25;;;;;;;10.77;8.25;;;;;;;;;;4988780;28;20207;-67
2022/08/12 04:56:52;;;;;;;9.05;8.35;;;;;;;;;;4991210;28;20210;-66
2022/08/12 04:59:20;;;;;;;8.68;7.95;;;;;;;;;;4989945;28;20254;-66
2022/08/12 05:01:50;;;;;;;10.07;9.27;;;;;;;;;;4989082;28;20212;-66
2022/08/12 05:04:17;;;;;;;10.63;9.25;;;;;;;;;;4989646;28;20207;-67
2022/08/12 05:06:44;;;;;;;10.20;9.35;;;;;;;;;;4990103;28;20343;-66
2022/08/12 05:09:10;;;;;;;10.18;9.27;;;;;;;;;;4990939;28;20246;-67
2022/08/12 05:11:37;;;;;;;10.70;9.85;;;;;;;;;;4988923;28;20277;-66
2022/08/12 05:14:03;;;;;;;9.77;8.48;;;;;;;;;;4987783;28;20203;-67
2022/08/12 05:16:31;;;;;;;9.00;8.40;;;;;;;;;;4988210;28;21272;-68
2022/08/12 05:18:58;;;;;;;9.52;8.52;;;;;;;;;;4989017;28;20215;-66
2022/08/12 05:21:25;;;;;;;12.25;8.57;;;;;;;;;;4989949;28;20212;-66
2022/08/12 05:23:53;;;;;;;9.13;7.53;;;;;;;;;;4989110;28;20211;-67
2022/08/12 05:26:21;;;;;;;10.32;8.00;;;;;;;21.86;nan;95216.50;4987832;28;20227;-65
2022/08/12 05:28:48;;;;;;;9.65;8.55;;;;;;;;;;4987745;28;20204;-66
2022/08/12 05:31:16;;;;;;;8.20;7.60;;;;;;;;;;4989709;28;20711;-67
2022/08/12 05:33:44;;;;;;;8.18;7.40;;;;;;;;;;4989528;28;20598;-66
2022/08/12 05:36:13;;;;;;;8.15;7.38;;;;;;;;;;4989931;28;20207;-66
2022/08/12 05:38:58;;;;;;;9.75;7.90;;;;;;;;;;4987297;28;20696;-66
2022/08/12 05:41:25;;;;;;;8.05;6.65;;;;;;;;;;4991305;28;20262;-66
2022/08/12 05:43:53;;;;;;;6.30;5.90;;;;;;;;;;4988274;28;20200;-66
2022/08/12 05:46:21;;;;;;;7.20;6.53;;;;;;;;;;4990618;28;20366;-67
2022/08/12 05:48:50;;;;;;;6.72;6.28;;;;;;;;;;4991886;28;20238;-67
2022/08/12 05:51:16;;;;;;;6.20;5.63;;;;;;;;;;4991326;28;20214;-67
2022/08/12 05:53:43;;;;;;;5.78;5.38;;;;;;;;;;4991447;28;20595;-66
2022/08/12 05:56:19;;;;;;;9.82;6.18;;;;;;;;;;4994235;28;20204;-66
2022/08/12 05:58:45;;;;;;;6.55;6.05;;;;;;;;;;4992621;28;20206;-66
2022/08/12 06:01:12;;;;;;;5.95;5.45;;;;;;;;;;4992984;28;20265;-66
2022/08/12 06:03:38;;;;;;;6.35;5.75;;;;;;;;;;4990729;28;20210;-67
2022/08/12 06:06:06;;;;;;;10.15;9.13;;;;;;;;;;4994860;28;20718;-66
2022/08/12 06:08:34;;;;;;;6.70;6.30;;;;;;;;;;4993063;28;20270;-66
2022/08/12 06:11:01;;;;;;;6.63;6.20;;;;;;;;;;4991512;28;21149;-67
2022/08/12 06:13:28;;;;;;;6.72;6.20;;;;;;;22.37;nan;95206.56;4993460;28;20313;-67
2022/08/12 06:15:54;;;;;;;7.28;6.78;;;;;;;;;;4993315;28;20195;-66
2022/08/12 06:18:21;;;;;;;8.48;7.63;;;;;;;;;;4992636;28;20198;-68
2022/08/12 06:20:48;;;;;;;6.70;6.20;;;;;;;;;;4990807;28;20643;-65
2022/08/12 06:23:16;;;;;;;8.50;7.85;;;;;;;;;;4992708;28;20208;-67
2022/08/12 06:25:45;;;;;;;8.80;8.05;;;;;;;21.72;nan;95168.41;4991817;28;20269;-67
2022/08/12 06:28:16;;;;;;;9.95;9.05;;;;;;;;;;4992196;28;20216;-66
2022/08/12 06:30:43;;;;;;;15.20;8.18;;;;;;;;;;4992647;28;20208;-66
2022/08/12 06:33:10;;;;;;;9.27;8.68;;;;;;;;;;4991876;28;20222;-67
2022/08/12 06:35:37;;;;;;;8.38;7.78;;;;;;;;;;4992294;28;20294;-66
2022/08/12 06:38:03;;;;;;;9.90;9.02;;;;;;;;;;4990200;28;20253;-65
2022/08/12 06:43:16;;;;;;;9.55;8.68;;;;;;;;;;4992910;28;20210;-67
2022/08/12 06:45:48;;;;;;;9.95;8.88;;;;;;;;;;4991160;28;20211;-66
2022/08/12 06:48:15;;;;;;;9.93;9.02;;;;;;;;;;4989971;28;20255;-66
2022/08/12 06:50:43;;;;;;;13.48;8.60;;;;;;;;;;4989351;28;20273;-67
2022/08/12 06:53:09;;;;;;;8.32;7.70;;;;;;;;;;4990609;28;20207;-67
2022/08/12 06:55:38;;;;;;;9.38;8.57;;;;;;;;;;4991724;28;20195;-66
2022/08/12 06:58:05;;;;;;;9.13;8.32;;;;;;;;;;4992884;28;20207;-67
2022/08/12 07:00:34;;;;;;;9.23;8.32;;;;;;;;;;4991891;28;20207;-67
2022/08/12 07:03:01;;;;;;;9.93;8.13;;;;;;;;;;4993066;28;20227;-71
2022/08/12 07:05:38;;;;;;;9.02;8.43;;;;;;;24.88;nan;95193.47;5000252;28;20245;-71
2022/08/12 07:08:06;;;;;;;14.75;10.23;;;;;;;;;;4995727;28;20526;-69
2022/08/12 07:10:37;;;;;;;11.00;9.98;;;;;;;;;;5000043;28;20306;-70
2022/08/12 07:13:08;;;;;;;12.52;10.27;;;;;;;;;;5000675;28;20220;-70
2022/08/12 07:15:35;;;;;;;13.40;11.27;;;;;;;;;;4995748;28;20365;-70
2022/08/12 07:18:05;;;;;;;12.80;11.55;;;;;;;;;;4999838;28;20206;-67
2022/08/12 07:20:34;;;;;;;16.00;9.95;;;;;;;;;;4995208;28;20207;-70
2022/08/12 07:23:01;;;;;;;11.23;9.82;;;;;;;;;;4991313;28;20294;-69
2022/08/12 07:25:31;;;;;;;11.02;8.32;;;;;;;;;;4993561;28;20262;-70
2022/08/12 07:28:02;;;;;;;9.73;8.75;;;;;;;25.14;nan;95198.19;4996622;28;20254;-70
2022/08/12 07:30:31;;;;;;;11.05;9.15;;;;;;;;;;4994838;28;20373;-70
2022/08/12 07:33:00;;;;;;;10.18;8.85;;;;;;;;;;4993088;28;20269;-69
2022/08/12 07:35:27;;;;;;;10.93;9.00;;;;;;;;;;4991631;28;20204;-69
2022/08/12 07:37:54;;;;;;;10.10;9.20;;;;;;;;;;4994007;28;20199;-70
2022/08/12 07:40:20;;;;;;;11.38;8.48;;;;;;;;;;4992465;28;20207;-69
2022/08/12 07:42:47;;;;;;;14.20;8.23;;;;;;;;;;4990958;28;20207;-70
2022/08/12 07:45:13;;;;;;;9.98;7.93;;;;;;;;;;4988634;28;20859;-70
2022/08/12 07:47:42;;;;;;;7.70;7.20;;;;;;;;;;4993452;28;20333;-68
2022/08/12 07:50:09;;;;;;;6.13;5.72;;;;;;;;;;4991959;28;20212;-69
2022/08/12 07:52:37;;;;;;;7.15;6.55;;;;;;;;;;4991300;28;20567;-71
2022/08/12 07:55:04;;;;;;;7.30;6.40;;;;;;;;;;4990514;28;20294;-69
2022/08/12 07:57:32;;;;;;;9.52;5.40;;;;;;;;;;4991232;28;20665;-70
2022/08/12 08:00:03;;;;;;;7.03;4.90;;;;;;;;;;4994128;28;20207;-69
2022/08/12 08:02:32;;;;;;;6.20;5.70;;;;;;;;;;4992697;28;20204;-69
2022/08/12 08:05:00;;;;;;;5.50;4.95;;;;;;;;;;4991157;28;20586;-68
2022/08/12 08:07:28;;;;;;;6.25;5.70;;;;;;;;;;4990464;28;20227;-69
2022/08/12 08:09:56;;;;;;;5.63;5.13;;;;;;;;;;4990352;28;20207;-68
2022/08/12 08:15:07;;;;;;;4.97;4.55;;;;;;;;;;4989453;28;20246;-69
2022/08/12 08:17:34;;;;;;;4.32;3.97;;;;;;;;;;4990880;28;20647;-69
2022/08/12 08:20:02;;;;;;;5.18;4.78;;;;;;;;;;4990189;28;20235;-69
2022/08/12 08:22:28;;;;;;;5.22;3.10;;;;;;;;;;4992648;28;20321;-70
2022/08/12 08:24:56;;;;;;;4.55;4.18;;;;;;;;;;4987534;28;20242;-71
2022/08/12 08:27:22;;;;;;;4.32;4.05;;;;;;;;;;4991474;28;20239;-70
2022/08/12 08:29:49;;;;;;;3.90;3.70;;;;;;;;;;4990278;28;20211;-69
2022/08/12 08:32:15;;;;;;;4.43;4.05;;;;;;;;;;4990608;28;20203;-69
2022/08/12 08:34:44;;;;;;;4.10;3.80;;;;;;;;;;4992917;28;20216;-70
2022/08/12 08:37:13;;;;;;;4.50;4.20;;;;;;;;;;4991061;28;20604;-69
2022/08/12 08:39:40;;;;;;;7.00;5.15;;;;;;;;;;4990193;28;20208;-70
2022/08/12 08:44:51;;;;;;;6.30;5.43;;;;;;;;;;4989308;28;21465;-71
2022/08/12 08:47:20;;;;;;;4.78;4.38;;;;;;;;;;4990141;28;20212;-70
2022/08/12 08:49:47;;;;;;;4.80;4.40;;;;;;;;;;4988266;28;20720;-70
2022/08/12 08:52:15;;;;;;;5.03;4.53;;;;;;;24.74;nan;95154.91;4991852;28;20710;-69
2022/08/12 08:54:41;;;;;;;4.55;4.25;;;;;;;;;;4989586;28;20766;-70
2022/08/12 08:57:08;;;;;;;5.10;4.38;;;;;;;24.93;nan;95148.88;4988855;28;20207;-67
2022/08/12 08:59:35;;;;;;;7.05;4.28;;;;;;;25.06;nan;95150.28;4991844;28;20292;-68
2022/08/12 09:02:02;;;;;;;4.97;4.35;;;;;;;;;;4989903;28;20723;-68
2022/08/12 09:04:28;;;;;;;4.68;4.28;;;;;;;;;;4990591;28;20913;-69
2022/08/12 09:06:57;;;;;;;6.43;4.95;;;;;;;25.83;nan;95138.13;4988624;28;20227;-69
2022/08/12 09:09:25;;;;;;;5.50;3.75;;;;;;;25.71;nan;95135.72;4996480;28;20231;-69
2022/08/12 09:14:42;;;;;;;6.55;3.80;;;;;;;;;;4971962;28;20221;-69
2022/08/12 09:17:09;;;;;;;5.63;3.90;;;;;;;25.83;nan;95132.91;4988677;28;20696;-69
2022/08/12 09:19:35;;;;;;;3.88;3.60;;;;;;;;;;4995233;28;20333;-70
2022/08/12 09:22:02;;;;;;;4.40;3.45;;;;;;;;;;4993469;28;20230;-70
2022/08/12 09:24:30;;;;;;;4.03;3.70;;;;;;;;;;4994538;28;20667;-70
2022/08/12 09:26:57;;;;;;;4.10;3.80;;;;;;;27.17;nan;95138.34;4992915;28;21784;-69
2022/08/12 09:29:23;;;;;;;3.60;3.40;;;;;;;26.97;nan;95125.47;4997433;28;20227;-68
2022/08/12 09:31:51;;;;;;;4.10;3.38;;;;;;;;;;4990294;28;20353;-69
2022/08/12 09:34:18;;;;;;;3.63;3.40;;;;;;;;;;4993593;28;21674;-68
2022/08/12 09:36:44;;;;;;;3.53;3.22;;;;;;;;;;4993160;28;20489;-68
2022/08/12 09:39:12;;;;;;;3.15;3.00;;;;;;;;;;4991792;28;20203;-67
2022/08/12 09:41:41;;;;;;;5.18;3.40;;;;;;;25.89;nan;95127.16;4992435;28;20211;-69
2022/08/12 09:46:52;;;;;;;3.67;3.35;;;;;;;25.80;nan;95134.03;4988847;28;20211;-69
2022/08/12 09:49:20;;;;;;;3.63;3.33;;;;;;;25.67;nan;95123.94;4991023;28;20281;-68
2022/08/12 09:51:47;;;;;;;3.63;3.33;;;;;;;;;;4991091;28;20204;-68
2022/08/12 09:54:15;;;;;;;3.47;3.28;;;;;;;;;;4992315;28;20252;-67
2022/08/12 09:56:44;;;;;;;3.40;3.20;;;;;;;;;;4990590;28;20203;-69
2022/08/12 09:59:11;;;;;;;3.33;3.03;;;;;;;26.09;nan;95113.91;4989585;28;20232;-67
2022/08/12 10:01:39;;;;;;;3.67;3.47;;;;;;;26.19;nan;95106.03;4992224;28;20203;-68
2022/08/12 10:04:08;;;;;;;3.47;3.22;;;;;;;26.69;nan;95101.22;4992361;28;20704;-68
2022/08/12 10:06:35;;;;;;;3.15;3.05;;;;;;;;;;4989248;28;20259;-69
2022/08/12 10:09:01;;;;;;;3.38;3.20;;;;;;;;;;4990939;28;20298;-68
2022/08/12 10:14:13;;;;;;;3.00;2.80;;;;;;;27.80;nan;95088.53;4991824;28;20582;-70
2022/08/12 10:16:43;;;;;;;3.55;3.30;;;;;;;;;;4992348;28;21257;-67
2022/08/12 10:19:10;;;;;;;3.38;3.10;;;;;;;;;;4989389;28;20199;-69
2022/08/12 10:21:40;;;;;;;3.92;3.63;;;;;;;26.93;nan;95082.38;4989599;28;20207;-67
2022/08/12 10:24:07;;;;;;;3.42;3.28;;;;;;;;;;4990711;28;20211;-69
2022/08/12 10:32:06;;;;;;;3.30;2.97;;;;;;;26.71;nan;95078.44;4989533;28;20211;-68
2022/08/12 10:34:33;;;;;;;4.78;3.88;;;;;;;27.14;nan;95071.66;4991439;28;20769;-70
2022/08/12 10:37:02;;;;;;;3.30;3.10;;;;;;;27.27;nan;95076.44;4993771;28;20203;-70
2022/08/12 10:39:32;;;;;;;3.85;3.65;;;;;;;26.72;nan;95079.25;4991814;28;20207;-72
2022/08/12 10:44:45;;;;;;;3.17;2.97;;;;;;;26.65;nan;95083.44;4987796;28;20264;-69
2022/08/12 10:47:15;;;;;;;4.47;2.92;;;;;;;26.96;nan;95096.94;4991206;28;20203;-69
2022/08/12 10:49:41;;;;;;;3.75;3.28;;;;;;;27.14;nan;95079.47;4991555;28;20223;-68
2022/08/12 10:52:08;;;;;;;3.20;3.00;;;;;;;27.18;nan;95074.78;4990717;28;20216;-70
2022/08/12 10:54:35;;;;;;;5.53;3.50;;;;;;;27.27;nan;95073.84;4990916;28;20642;-70
2022/08/12 10:57:02;;;;;;;4.25;3.95;;;;;;;26.98;nan;95074.09;4990556;28;20220;-70
2022/08/12 10:59:29;;;;;;;4.18;3.75;;;;;;;26.83;nan;95065.97;4991867;28;20208;-70
2022/08/12 11:01:57;;;;;;;3.55;3.25;;;;;;;;;;4990399;28;20208;-70
2022/08/12 11:04:24;;;;;;;10.45;9.68;;;;;;;;;;4991130;28;20208;-70
2022/08/12 11:06:52;;;;;;;6.38;5.80;;;;;;;26.78;nan;95057.78;4991107;28;20688;-70
2022/08/12 11:09:23;;;;;;;4.05;3.85;;;;;;;26.69;nan;95063.91;4995203;28;20236;-70
2022/08/12 11:11:51;;;;;;;3.90;3.70;;;;;;;26.80;nan;95055.03;4988803;28;20231;-69
2022/08/12 11:14:27;;;;;;;6.63;6.07;;;;;;;;;;4992856;28;20315;-69
2022/08/12 11:16:55;;;;;;;3.67;3.47;;;;;;;;;;4991741;28;20332;-69
2022/08/12 11:19:23;;;;;;;4.00;3.70;;;;;;;;;;4991317;28;20207;-70
2022/08/12 11:21:51;;;;;;;3.22;3.03;;;;;;;;;;4988408;28;20207;-69
2022/08/12 11:24:17;;;;;;;4.28;3.70;;;;;;;;;;4989839;28;20697;-71
2022/08/12 11:26:44;;;;;;;3.60;3.40;;;;;;;;;;4994179;28;20855;-70
2022/08/12 11:29:11;;;;;;;3.60;3.30;;;;;;;26.97;nan;95036.81;5011226;28;20294;-70
2022/08/12 11:31:37;;;;;;;4.47;3.63;;;;;;;;;;5012040;28;20200;-69
2022/08/12 11:34:03;;;;;;;4.22;3.25;;;;;;;;;;5010610;28;20666;-66
2022/08/12 11:36:32;;;;;;;3.67;3.58;;;;;;;27.13;nan;95036.09;5010596;28;20200;-66
2022/08/12 11:38:58;;;;;;;3.33;3.22;;;;;;;;;;5011991;28;20204;-65
2022/08/12 11:41:25;;;;;;;5.30;3.78;;;;;;;26.71;nan;95036.72;5010970;28;20266;-67
2022/08/12 11:43:52;;;;;;;4.35;4.10;;;;;;;26.82;nan;95027.84;5010180;28;20748;-66
2022/08/12 11:46:19;;;;;;;3.65;3.28;;;;;;;;;;5011111;28;20201;-66
2022/08/12 11:48:45;;;;;;;3.35;3.15;;;;;;;27.05;nan;95025.59;5011058;28;20232;-66
2022/08/12 11:51:12;;;;;;;3.75;3.45;;;;;;;27.16;nan;95035.78;5011950;28;20551;-67
2022/08/12 11:53:40;;;;;;;3.97;3.78;;;;;;;;;;5012130;28;20204;-66
2022/08/12 11:56:07;;;;;;;3.72;3.42;;;;;;;27.26;nan;95025.22;5009111;28;20557;-66
2022/08/12 11:58:34;;;;;;;3.85;3.55;;;;;;;;;;5010382;28;20345;-67
2022/08/12 12:01:01;;;;;;;4.00;3.70;;;;;;;27.31;nan;95017.78;5009245;28;20255;-67
2022/08/12 12:03:28;;;;;;;4.32;3.92;;;;;;;27.44;nan;95015.56;5009199;28;20200;-67
2022/08/12 12:05:54;;;;;;;4.03;3.72;;;;;;;27.42;nan;95020.13;5008595;28;20216;-67
2022/08/12 12:08:21;;;;;;;3.72;3.53;;;;;;;;;;5008608;28;20232;-67
2022/08/12 12:10:49;;;;;;;3.88;3.55;;;;;;;;;;5009504;28;20228;-68
2022/08/12 12:13:17;;;;;;;3.63;3.33;;;;;;;27.30;nan;95016.13;5010089;28;20243;-65
2022/08/12 12:15:44;;;;;;;3.72;3.42;;;;;;;27.46;nan;95005.81;5010360;28;20258;-67
2022/08/12 12:18:20;;;;;;;5.93;5.43;;;;;;;27.20;nan;95012.81;5011445;28;20275;-67
2022/08/12 12:20:47;;;;;;;3.72;3.30;;;;;;;26.96;nan;95014.31;5011676;28;20279;-67
2022/08/12 12:23:14;;;;;;;3.97;3.58;;;;;;;26.85;nan;95011.91;5011218;28;20196;-66
2022/08/12 12:25:40;;;;;;;4.10;3.80;;;;;;;26.91;nan;95010.47;5011697;28;20200;-68
2022/08/12 12:28:08;;;;;;;5.43;4.22;;;;;;;26.92;nan;95005.09;5011419;28;20200;-66
2022/08/12 12:30:35;;;;;;;7.45;6.45;;;;;;;;;;5011457;28;20258;-67
2022/08/12 12:33:02;;;;;;;4.60;4.18;;;;;;;26.73;nan;94981.81;5011237;28;20667;-68
2022/08/12 12:35:29;;;;;;;4.03;3.72;;;;;;;;;;5011216;28;20197;-67
2022/08/12 12:37:57;;;;;;;4.63;4.32;;;;;;;27.13;nan;94994.34;5011136;28;20744;-68
2022/08/12 12:40:25;;;;;;;4.28;3.88;;;;;;;27.55;nan;94999.63;5011169;28;20201;-67
2022/08/12 12:42:52;;;;;;;5.53;4.90;;;;;;;27.37;nan;94985.84;5011137;28;20196;-66
2022/08/12 12:45:20;;;;;;;3.85;3.55;;;;;;;;;;5011381;28;20200;-66
2022/08/12 12:47:55;;;;;;;4.40;4.13;;;;;;;26.67;nan;94985.03;5010760;28;20262;-66
2022/08/12 12:50:22;;;;;;;4.72;3.67;;;;;;;26.70;nan;94982.94;5010901;28;20223;-67
2022/08/12 12:52:49;;;;;;;3.17;3.08;;;;;;;26.46;nan;94987.97;5011088;28;20258;-67
2022/08/12 12:55:16;;;;;;;3.72;3.53;;;;;;;;;;5010838;28;20274;-67
2022/08/12 12:57:43;;;;;;;6.32;4.28;;;;;;;;;;5011000;28;20196;-68
2022/08/12 13:00:14;;;;;;;3.78;3.58;;;;;;;26.26;nan;94979.44;5010656;28;20192;-67
2022/08/12 13:02:44;;;;;;;3.28;2.80;;;;;;;26.15;nan;94982.28;5010822;28;20674;-67
2022/08/12 13:05:11;;;;;;;4.32;3.58;;;;;;;26.20;nan;94980.03;5027524;28;20216;-66
2022/08/12 13:07:40;;;;;;;4.13;3.33;;;;;;;26.18;nan;94971.56;5028604;28;20740;-66
2022/08/12 13:10:08;;;;;;;3.22;3.03;;;;;;;26.27;nan;94970.66;5028493;28;20219;-67
2022/08/12 13:12:35;;;;;;;4.82;4.35;;;;;;;26.58;nan;94984.16;5028984;28;20206;-67
2022/08/12 13:15:03;;;;;;;3.63;3.42;;;;;;;26.77;nan;94967.50;5028504;28;20674;-67
2022/08/12 13:17:30;;;;;;;4.32;3.55;;;;;;;26.78;nan;94956.09;5029008;28;20291;-67
2022/08/12 13:20:04;;;;;;;5.63;4.20;;;;;;;26.65;nan;94968.72;5028944;28;20258;-67
2022/08/12 13:22:31;;;;;;;4.53;4.22;;;;;;;26.55;nan;94952.34;5030741;28;20215;-65
2022/08/12 13:24:58;;;;;;;4.30;3.95;;;;;;;26.98;nan;94965.38;5030638;28;20330;-66
2022/08/12 13:27:28;;;;;;;4.10;3.58;;;;;;;27.39;nan;94957.81;5030191;28;20753;-66
2022/08/12 13:29:55;;;;;;;4.22;3.80;;;;;;;27.29;nan;94957.09;5030395;28;20227;-67
2022/08/12 13:32:22;;;;;;;3.65;3.45;;;;;;;27.34;nan;94965.28;5030251;28;20701;-67
2022/08/12 13:34:51;;;;;;;4.00;3.60;;;;;;;26.85;nan;94967.56;5030288;28;20295;-66
2022/08/12 13:37:25;;;;;;;4.43;4.13;;;;;;;26.36;nan;94980.22;5030493;28;20204;-67
2022/08/12 13:39:52;;;;;;;7.90;4.82;;;;;;;25.81;nan;94970.84;5030389;28;20227;-67
2022/08/12 13:42:19;;;;;;;5.25;4.38;;;;;;;25.98;nan;94959.66;5030181;28;20696;-67
2022/08/12 13:44:46;;;;;;;4.32;4.03;;;;;;;26.13;nan;94965.97;5030296;28;20257;-67
2022/08/12 13:47:12;;;;;;;3.90;3.60;;;;;;;26.10;nan;94974.91;5030536;28;20211;-66
2022/08/12 13:49:39;;;;;;;4.05;3.55;;;;;;;;;;5029852;28;20712;-67
2022/08/12 13:52:05;;;;;;;4.20;3.90;;;;;;;;;;5030433;28;20346;-67
2022/08/12 13:54:33;;;;;;;4.85;3.72;;;;;;;;;;5030337;28;20250;-67
2022/08/12 13:57:00;;;;;;;5.68;3.53;;;;;;;;;;5029897;28;20261;-67
2022/08/12 13:59:26;;;;;;;3.83;3.60;;;;;;;;;;5030303;28;20195;-67
2022/08/12 14:01:53;;;;;;;4.25;3.85;;;;;;;;;;5030096;28;20208;-66
2022/08/12 14:04:19;;;;;;;3.50;3.30;;;;;;;;;;5030242;28;20614;-68
2022/08/12 14:06:49;;;;;;;3.90;3.70;;;;;;;;;;5031670;28;20281;-67
2022/08/12 14:09:16;;;;;;;4.45;3.90;;;;;;;25.79;nan;94980.56;5033590;28;20848;-68
2022/08/12 14:11:44;;;;;;;4.55;3.38;;;;;;;;;;5033451;28;20240;-67
2022/08/12 14:14:10;;;;;;;3.25;3.05;;;;;;;;;;5033453;28;20212;-66
2022/08/12 14:16:37;;;;;;;4.63;3.58;;;;;;;;;;5033619;28;20196;-67
2022/08/12 14:19:03;;;;;;;3.80;2.97;;;;;;;;;;5033033;28;20700;-66
2022/08/12 14:21:31;;;;;;;3.75;3.17;;;;;;;;;;5033588;28;20525;-66
2022/08/12 14:23:57;;;;;;;3.72;3.42;;;;;;;;;;5033402;28;20592;-66
2022/08/12 14:26:24;;;;;;;3.80;3.47;;;;;;;;;;5033400;28;20277;-67
2022/08/12 14:28:53;;;;;;;3.88;3.67;;;;;;;25.45;nan;94968.13;5033191;28;20210;-64
2022/08/12 14:31:22;;;;;;;3.90;3.70;;;;;;;;;;5033222;28;20204;-66
2022/08/12 14:33:51;;;;;;;4.65;3.90;;;;;;;;;;5033330;28;20278;-64
2022/08/12 14:36:19;;;;;;;3.65;3.45;;;;;;;;;;5033402;28;20200;-66
2022/08/12 14:38:45;;;;;;;3.55;3.30;;;;;;;;;;5033102;28;20390;-66
2022/08/12 14:41:14;;;;;;;4.20;3.95;;;;;;;;;;5032949;28;20203;-66
2022/08/12 14:43:42;;;;;;;3.42;3.28;;;;;;;25.24;nan;94985.75;5032749;28;20560;-67
2022/08/12 14:46:11;;;;;;;3.53;3.22;;;;;;;;;;5032974;28;20673;-67
2022/08/12 14:48:43;;;;;;;3.85;3.42;;;;;;;25.35;nan;94972.53;5032463;28;20294;-66
2022/08/12 14:51:10;;;;;;;3.85;2.92;;;;;;;;;;5032607;28;20226;-66
2022/08/12 14:53:36;;;;;;;3.80;3.50;;;;;;;;;;5032771;28;20196;-66
2022/08/12 14:56:04;;;;;;;3.55;3.40;;;;;;;25.24;nan;94975.34;5032944;28;20195;-66
2022/08/12 14:58:31;;;;;;;3.13;2.92;;;;;;;;;;5032843;28;20203;-66
2022/08/12 15:03:49;;;;;;;3.42;3.22;;;;;;;25.63;nan;94963.81;5017054;28;20290;-67
2022/08/12 15:06:18;;;;;;;3.85;2.97;;;;;;;;;;5032695;28;20282;-67
2022/08/12 15:08:44;;;;;;;3.80;3.50;;;;;;;;;;5032356;28;20678;-67
2022/08/12 15:11:13;;;;;;;7.22;3.20;;;;;;;25.61;nan;94947.50;5032019;28;20285;-66
2022/08/12 15:13:41;;;;;;;3.35;3.15;;;;;;;25.86;nan;94955.59;5032944;28;20859;-67
2022/08/12 15:16:09;;;;;;;3.08;2.80;;;;;;;26.07;nan;94954.34;5032393;28;20199;-67
2022/08/12 15:18:36;;;;;;;3.47;3.28;;;;;;;25.97;nan;94947.59;5032015;28;20727;-66
2022/08/12 15:21:05;;;;;;;3.40;3.10;;;;;;;26.02;nan;94934.91;5032122;28;20200;-67
2022/08/12 15:23:34;;;;;;;5.55;3.08;;;;;;;25.79;nan;94938.91;5032415;28;20269;-65
2022/08/12 15:26:03;;;;;;;3.30;2.88;;;;;;;;;;5032307;28;20200;-66
2022/08/12 15:28:32;;;;;;;3.03;2.83;;;;;;;25.97;nan;94926.75;5031973;28;20258;-66
2022/08/12 15:30:59;;;;;;;4.45;3.50;;;;;;;;;;5031707;28;20223;-66
2022/08/12 15:33:27;;;;;;;4.55;2.90;;;;;;;;;;5032051;28;20607;-66
2022/08/12 15:35:55;;;;;;;3.10;3.00;;;;;;;25.67;nan;94915.72;5031996;28;20207;-66
2022/08/12 15:38:25;;;;;;;3.00;2.80;;;;;;;;;;5031743;28;20727;-66